sensor_id;sensor_type;location;lat;lon;timestamp;P1;durP1;ratioP1;P2;durP2;ratioP2
75038;SDS011;63609;49.992;14.512;2023-05-10T00:03:31;5.43;;;2.95;;
75038;SDS011;63609;49.992;14.512;2023-05-10T00:06:00;4.60;;;3.10;;
75038;SDS011;63609;49.992;14.512;2023-05-10T00:08:30;6.13;;;2.92;;
75038;SDS011;63609;49.992;14.512;2023-05-10T00:10:58;5.45;;;3.20;;
75038;SDS011;63609;49.992;14.512;2023-05-10T00:13:26;6.45;;;3.08;;
75038;SDS011;63609;49.992;14.512;2023-05-10T00:15:55;6.22;;;3.10;;
75038;SDS011;63609;49.992;14.512;2023-05-10T00:18:23;4.70;;;3.03;;
75038;SDS011;63609;49.992;14.512;2023-05-10T00:20:51;4.45;;;2.80;;
75038;SDS011;63609;49.992;14.512;2023-05-10T00:23:20;4.60;;;2.80;;
75038;SDS011;63609;49.992;14.512;2023-05-10T00:25:50;5.93;;;3.42;;
75038;SDS011;63609;49.992;14.512;2023-05-10T00:28:19;4.93;;;2.95;;
75038;SDS011;63609;49.992;14.512;2023-05-10T00:31:02;5.82;;;2.90;;
75038;SDS011;63609;49.992;14.512;2023-05-10T00:33:34;6.28;;;2.80;;
75038;SDS011;63609;49.992;14.512;2023-05-10T00:36:02;4.65;;;2.90;;
75038;SDS011;63609;49.992;14.512;2023-05-10T00:38:30;6.10;;;3.30;;
75038;SDS011;63609;49.992;14.512;2023-05-10T00:40:59;4.72;;;2.92;;
75038;SDS011;63609;49.992;14.512;2023-05-10T00:43:30;7.22;;;3.00;;
75038;SDS011;63609;49.992;14.512;2023-05-10T00:46:03;5.55;;;3.13;;
75038;SDS011;63609;49.992;14.512;2023-05-10T00:48:34;4.68;;;2.90;;
75038;SDS011;63609;49.992;14.512;2023-05-10T00:51:05;5.40;;;3.30;;
75038;SDS011;63609;49.992;14.512;2023-05-10T00:53:34;4.55;;;2.75;;
75038;SDS011;63609;49.992;14.512;2023-05-10T00:56:04;6.90;;;2.95;;
75038;SDS011;63609;49.992;14.512;2023-05-10T00:58:33;6.78;;;3.22;;
75038;SDS011;63609;49.992;14.512;2023-05-10T01:01:05;4.45;;;2.80;;
75038;SDS011;63609;49.992;14.512;2023-05-10T01:03:34;4.50;;;2.70;;
75038;SDS011;63609;49.992;14.512;2023-05-10T01:06:05;4.95;;;2.70;;
75038;SDS011;63609;49.992;14.512;2023-05-10T01:08:39;5.03;;;2.85;;
75038;SDS011;63609;49.992;14.512;2023-05-10T01:11:08;5.45;;;3.33;;
75038;SDS011;63609;49.992;14.512;2023-05-10T01:13:44;4.93;;;3.08;;
75038;SDS011;63609;49.992;14.512;2023-05-10T01:16:23;5.43;;;3.28;;
75038;SDS011;63609;49.992;14.512;2023-05-10T01:18:58;5.15;;;2.90;;
75038;SDS011;63609;49.992;14.512;2023-05-10T01:32:46;6.65;;;3.13;;
75038;SDS011;63609;49.992;14.512;2023-05-10T01:38:11;8.27;;;3.00;;
75038;SDS011;63609;49.992;14.512;2023-05-10T01:40:51;6.30;;;3.10;;
75038;SDS011;63609;49.992;14.512;2023-05-10T01:43:40;4.82;;;2.90;;
75038;SDS011;63609;49.992;14.512;2023-05-10T01:46:34;5.47;;;3.03;;
75038;SDS011;63609;49.992;14.512;2023-05-10T01:49:08;5.43;;;2.70;;
75038;SDS011;63609;49.992;14.512;2023-05-10T01:51:50;5.13;;;2.67;;
75038;SDS011;63609;49.992;14.512;2023-05-10T01:54:25;5.25;;;3.00;;
75038;SDS011;63609;49.992;14.512;2023-05-10T01:56:59;6.95;;;3.30;;
75038;SDS011;63609;49.992;14.512;2023-05-10T01:59:36;7.25;;;3.00;;
75038;SDS011;63609;49.992;14.512;2023-05-10T02:02:08;6.65;;;3.25;;
75038;SDS011;63609;49.992;14.512;2023-05-10T02:04:39;7.53;;;3.42;;
75038;SDS011;63609;49.992;14.512;2023-05-10T02:07:09;8.63;;;3.65;;
75038;SDS011;63609;49.992;14.512;2023-05-10T02:09:39;8.18;;;3.72;;
75038;SDS011;63609;49.992;14.512;2023-05-10T02:12:11;5.57;;;3.58;;
75038;SDS011;63609;49.992;14.512;2023-05-10T02:14:41;7.00;;;3.47;;
75038;SDS011;63609;49.992;14.512;2023-05-10T02:17:11;6.30;;;3.30;;
75038;SDS011;63609;49.992;14.512;2023-05-10T02:19:40;5.78;;;3.22;;
75038;SDS011;63609;49.992;14.512;2023-05-10T02:22:11;5.20;;;3.10;;
75038;SDS011;63609;49.992;14.512;2023-05-10T02:24:41;6.63;;;3.08;;
75038;SDS011;63609;49.992;14.512;2023-05-10T02:27:11;6.18;;;2.63;;
75038;SDS011;63609;49.992;14.512;2023-05-10T02:29:42;5.50;;;3.05;;
75038;SDS011;63609;49.992;14.512;2023-05-10T02:32:11;4.80;;;2.80;;
75038;SDS011;63609;49.992;14.512;2023-05-10T02:34:40;6.07;;;3.03;;
75038;SDS011;63609;49.992;14.512;2023-05-10T02:37:09;5.45;;;2.95;;
75038;SDS011;63609;49.992;14.512;2023-05-10T02:39:37;6.68;;;3.30;;
75038;SDS011;63609;49.992;14.512;2023-05-10T02:42:17;6.22;;;3.22;;
75038;SDS011;63609;49.992;14.512;2023-05-10T02:44:50;6.30;;;3.13;;
75038;SDS011;63609;49.992;14.512;2023-05-10T02:47:20;4.78;;;2.97;;
75038;SDS011;63609;49.992;14.512;2023-05-10T02:49:48;6.00;;;2.92;;
75038;SDS011;63609;49.992;14.512;2023-05-10T02:52:19;5.80;;;3.00;;
75038;SDS011;63609;49.992;14.512;2023-05-10T02:54:58;6.15;;;2.88;;
75038;SDS011;63609;49.992;14.512;2023-05-10T02:57:34;5.65;;;3.22;;
75038;SDS011;63609;49.992;14.512;2023-05-10T03:00:11;4.97;;;3.10;;
75038;SDS011;63609;49.992;14.512;2023-05-10T03:02:39;6.90;;;3.30;;
75038;SDS011;63609;49.992;14.512;2023-05-10T03:05:09;5.57;;;3.05;;
75038;SDS011;63609;49.992;14.512;2023-05-10T03:07:37;6.95;;;3.35;;
75038;SDS011;63609;49.992;14.512;2023-05-10T03:10:04;6.13;;;3.30;;
75038;SDS011;63609;49.992;14.512;2023-05-10T03:18:22;7.45;;;3.10;;
75038;SDS011;63609;49.992;14.512;2023-05-10T03:21:04;6.63;;;2.95;;
75038;SDS011;63609;49.992;14.512;2023-05-10T03:23:40;5.47;;;3.00;;
75038;SDS011;63609;49.992;14.512;2023-05-10T03:26:23;5.78;;;3.40;;
75038;SDS011;63609;49.992;14.512;2023-05-10T03:29:06;5.30;;;2.80;;
75038;SDS011;63609;49.992;14.512;2023-05-10T03:31:40;6.35;;;2.92;;
75038;SDS011;63609;49.992;14.512;2023-05-10T03:34:09;5.10;;;2.80;;
75038;SDS011;63609;49.992;14.512;2023-05-10T03:36:38;5.75;;;3.25;;
75038;SDS011;63609;49.992;14.512;2023-05-10T03:39:06;6.22;;;3.08;;
75038;SDS011;63609;49.992;14.512;2023-05-10T03:41:34;6.00;;;2.80;;
75038;SDS011;63609;49.992;14.512;2023-05-10T03:44:05;4.07;;;2.30;;
75038;SDS011;63609;49.992;14.512;2023-05-10T03:46:33;4.75;;;2.72;;
75038;SDS011;63609;49.992;14.512;2023-05-10T03:49:05;4.82;;;2.70;;
75038;SDS011;63609;49.992;14.512;2023-05-10T03:51:36;5.97;;;2.72;;
75038;SDS011;63609;49.992;14.512;2023-05-10T03:54:04;7.20;;;2.97;;
75038;SDS011;63609;49.992;14.512;2023-05-10T03:56:33;5.85;;;2.85;;
75038;SDS011;63609;49.992;14.512;2023-05-10T03:59:02;4.60;;;2.72;;
75038;SDS011;63609;49.992;14.512;2023-05-10T04:01:46;5.05;;;2.60;;
75038;SDS011;63609;49.992;14.512;2023-05-10T04:04:14;5.35;;;2.80;;
75038;SDS011;63609;49.992;14.512;2023-05-10T04:06:43;4.93;;;2.60;;
75038;SDS011;63609;49.992;14.512;2023-05-10T04:09:13;5.38;;;3.00;;
75038;SDS011;63609;49.992;14.512;2023-05-10T04:11:45;5.47;;;3.05;;
75038;SDS011;63609;49.992;14.512;2023-05-10T04:14:13;8.48;;;3.33;;
75038;SDS011;63609;49.992;14.512;2023-05-10T04:16:44;6.93;;;3.10;;
75038;SDS011;63609;49.992;14.512;2023-05-10T04:19:13;6.32;;;3.50;;
75038;SDS011;63609;49.992;14.512;2023-05-10T04:21:41;6.95;;;3.35;;
75038;SDS011;63609;49.992;14.512;2023-05-10T04:24:10;5.07;;;2.92;;
75038;SDS011;63609;49.992;14.512;2023-05-10T04:26:39;5.47;;;2.97;;
75038;SDS011;63609;49.992;14.512;2023-05-10T04:29:08;6.72;;;2.95;;
75038;SDS011;63609;49.992;14.512;2023-05-10T04:31:40;6.50;;;3.35;;
75038;SDS011;63609;49.992;14.512;2023-05-10T04:34:08;7.05;;;3.67;;
75038;SDS011;63609;49.992;14.512;2023-05-10T04:36:41;5.13;;;3.03;;
75038;SDS011;63609;49.992;14.512;2023-05-10T04:39:09;8.65;;;3.05;;
75038;SDS011;63609;49.992;14.512;2023-05-10T04:41:38;5.53;;;2.80;;
75038;SDS011;63609;49.992;14.512;2023-05-10T04:44:06;8.20;;;3.47;;
75038;SDS011;63609;49.992;14.512;2023-05-10T04:46:38;4.60;;;2.80;;
75038;SDS011;63609;49.992;14.512;2023-05-10T04:49:06;4.72;;;2.63;;
75038;SDS011;63609;49.992;14.512;2023-05-10T04:51:35;5.75;;;3.00;;
75038;SDS011;63609;49.992;14.512;2023-05-10T04:54:03;4.38;;;2.60;;
75038;SDS011;63609;49.992;14.512;2023-05-10T04:56:33;5.13;;;3.17;;
75038;SDS011;63609;49.992;14.512;2023-05-10T04:59:01;5.82;;;2.90;;
75038;SDS011;63609;49.992;14.512;2023-05-10T05:01:31;6.57;;;3.42;;
75038;SDS011;63609;49.992;14.512;2023-05-10T05:04:00;5.72;;;3.03;;
75038;SDS011;63609;49.992;14.512;2023-05-10T05:06:28;6.20;;;3.17;;
75038;SDS011;63609;49.992;14.512;2023-05-10T05:08:58;4.85;;;3.28;;
75038;SDS011;63609;49.992;14.512;2023-05-10T05:11:26;6.78;;;3.08;;
75038;SDS011;63609;49.992;14.512;2023-05-10T05:13:54;5.32;;;2.70;;
75038;SDS011;63609;49.992;14.512;2023-05-10T05:16:26;5.47;;;3.30;;
75038;SDS011;63609;49.992;14.512;2023-05-10T05:19:08;5.78;;;3.28;;
75038;SDS011;63609;49.992;14.512;2023-05-10T05:21:39;6.20;;;3.17;;
75038;SDS011;63609;49.992;14.512;2023-05-10T05:24:09;4.93;;;2.85;;
75038;SDS011;63609;49.992;14.512;2023-05-10T05:26:39;4.95;;;2.88;;
75038;SDS011;63609;49.992;14.512;2023-05-10T05:29:06;6.30;;;3.15;;
75038;SDS011;63609;49.992;14.512;2023-05-10T05:31:37;5.18;;;2.80;;
75038;SDS011;63609;49.992;14.512;2023-05-10T05:34:06;4.32;;;2.72;;
75038;SDS011;63609;49.992;14.512;2023-05-10T05:36:36;5.60;;;2.88;;
75038;SDS011;63609;49.992;14.512;2023-05-10T05:39:09;5.00;;;2.90;;
75038;SDS011;63609;49.992;14.512;2023-05-10T05:41:37;5.05;;;2.67;;
75038;SDS011;63609;49.992;14.512;2023-05-10T05:44:05;3.85;;;2.17;;
75038;SDS011;63609;49.992;14.512;2023-05-10T05:46:35;5.10;;;2.30;;
75038;SDS011;63609;49.992;14.512;2023-05-10T05:49:02;4.30;;;2.55;;
75038;SDS011;63609;49.992;14.512;2023-05-10T05:51:32;4.43;;;2.53;;
75038;SDS011;63609;49.992;14.512;2023-05-10T05:54:02;4.50;;;2.20;;
75038;SDS011;63609;49.992;14.512;2023-05-10T05:56:32;3.97;;;2.50;;
75038;SDS011;63609;49.992;14.512;2023-05-10T05:59:00;2.70;;;1.98;;
75038;SDS011;63609;49.992;14.512;2023-05-10T06:01:35;8.48;;;2.72;;
75038;SDS011;63609;49.992;14.512;2023-05-10T06:04:05;3.75;;;2.22;;
75038;SDS011;63609;49.992;14.512;2023-05-10T06:06:35;4.63;;;2.25;;
75038;SDS011;63609;49.992;14.512;2023-05-10T06:09:04;4.22;;;2.40;;
75038;SDS011;63609;49.992;14.512;2023-05-10T06:11:32;4.20;;;2.08;;
75038;SDS011;63609;49.992;14.512;2023-05-10T06:14:01;5.28;;;2.10;;
75038;SDS011;63609;49.992;14.512;2023-05-10T06:16:32;5.18;;;2.80;;
75038;SDS011;63609;49.992;14.512;2023-05-10T06:19:01;5.57;;;2.63;;
75038;SDS011;63609;49.992;14.512;2023-05-10T06:21:30;3.88;;;2.50;;
75038;SDS011;63609;49.992;14.512;2023-05-10T06:23:59;3.80;;;2.10;;
75038;SDS011;63609;49.992;14.512;2023-05-10T06:26:27;3.58;;;2.05;;
75038;SDS011;63609;49.992;14.512;2023-05-10T06:28:56;4.03;;;2.30;;
75038;SDS011;63609;49.992;14.512;2023-05-10T06:31:33;5.32;;;2.38;;
75038;SDS011;63609;49.992;14.512;2023-05-10T06:34:01;5.40;;;2.10;;
75038;SDS011;63609;49.992;14.512;2023-05-10T06:36:35;4.43;;;2.28;;
75038;SDS011;63609;49.992;14.512;2023-05-10T06:39:04;3.97;;;2.80;;
75038;SDS011;63609;49.992;14.512;2023-05-10T06:41:33;5.30;;;2.60;;
75038;SDS011;63609;49.992;14.512;2023-05-10T06:44:06;6.78;;;2.70;;
75038;SDS011;63609;49.992;14.512;2023-05-10T06:46:40;4.53;;;2.40;;
75038;SDS011;63609;49.992;14.512;2023-05-10T06:49:09;4.70;;;2.38;;
75038;SDS011;63609;49.992;14.512;2023-05-10T06:51:37;3.95;;;1.85;;
75038;SDS011;63609;49.992;14.512;2023-05-10T06:54:06;5.50;;;2.22;;
75038;SDS011;63609;49.992;14.512;2023-05-10T06:56:45;4.13;;;2.33;;
75038;SDS011;63609;49.992;14.512;2023-05-10T07:02:18;2.40;;;1.42;;
75038;SDS011;63609;49.992;14.512;2023-05-10T07:04:46;3.63;;;2.40;;
75038;SDS011;63609;49.992;14.512;2023-05-10T07:09:46;5.55;;;2.38;;
75038;SDS011;63609;49.992;14.512;2023-05-10T07:12:14;11.80;;;2.70;;
75038;SDS011;63609;49.992;14.512;2023-05-10T07:14:43;4.00;;;2.60;;
75038;SDS011;63609;49.992;14.512;2023-05-10T07:17:12;4.93;;;2.70;;
75038;SDS011;63609;49.992;14.512;2023-05-10T07:19:44;4.93;;;2.95;;
75038;SDS011;63609;49.992;14.512;2023-05-10T07:22:12;4.88;;;2.22;;
75038;SDS011;63609;49.992;14.512;2023-05-10T07:24:40;4.43;;;2.53;;
75038;SDS011;63609;49.992;14.512;2023-05-10T07:27:08;4.63;;;2.60;;
75038;SDS011;63609;49.992;14.512;2023-05-10T07:29:36;4.57;;;2.45;;
75038;SDS011;63609;49.992;14.512;2023-05-10T07:32:08;3.90;;;2.50;;
75038;SDS011;63609;49.992;14.512;2023-05-10T07:34:40;3.95;;;2.33;;
75038;SDS011;63609;49.992;14.512;2023-05-10T07:37:11;4.15;;;2.17;;
75038;SDS011;63609;49.992;14.512;2023-05-10T07:39:39;5.68;;;2.30;;
75038;SDS011;63609;49.992;14.512;2023-05-10T07:42:13;3.78;;;2.13;;
75038;SDS011;63609;49.992;14.512;2023-05-10T07:44:40;3.65;;;2.45;;
75038;SDS011;63609;49.992;14.512;2023-05-10T07:47:12;3.60;;;1.83;;
75038;SDS011;63609;49.992;14.512;2023-05-10T07:49:41;4.70;;;2.70;;
75038;SDS011;63609;49.992;14.512;2023-05-10T07:52:09;5.47;;;2.58;;
75038;SDS011;63609;49.992;14.512;2023-05-10T07:54:37;4.80;;;2.20;;
75038;SDS011;63609;49.992;14.512;2023-05-10T07:57:05;4.00;;;2.28;;
75038;SDS011;63609;49.992;14.512;2023-05-10T07:59:33;3.53;;;2.08;;
75038;SDS011;63609;49.992;14.512;2023-05-10T08:02:02;4.10;;;2.38;;
75038;SDS011;63609;49.992;14.512;2023-05-10T08:04:30;4.82;;;2.38;;
75038;SDS011;63609;49.992;14.512;2023-05-10T08:06:58;3.50;;;2.30;;
75038;SDS011;63609;49.992;14.512;2023-05-10T08:09:26;5.15;;;2.10;;
75038;SDS011;63609;49.992;14.512;2023-05-10T08:11:56;3.63;;;2.05;;
75038;SDS011;63609;49.992;14.512;2023-05-10T08:14:27;4.97;;;2.20;;
75038;SDS011;63609;49.992;14.512;2023-05-10T08:16:57;3.03;;;1.90;;
75038;SDS011;63609;49.992;14.512;2023-05-10T08:19:25;4.15;;;2.33;;
75038;SDS011;63609;49.992;14.512;2023-05-10T08:21:56;5.28;;;2.40;;
75038;SDS011;63609;49.992;14.512;2023-05-10T08:24:24;6.05;;;2.40;;
75038;SDS011;63609;49.992;14.512;2023-05-10T08:26:53;4.97;;;2.70;;
75038;SDS011;63609;49.992;14.512;2023-05-10T08:29:21;3.78;;;2.25;;
75038;SDS011;63609;49.992;14.512;2023-05-10T08:31:50;3.30;;;1.98;;
75038;SDS011;63609;49.992;14.512;2023-05-10T08:34:18;3.80;;;2.28;;
75038;SDS011;63609;49.992;14.512;2023-05-10T08:36:49;4.90;;;2.72;;
75038;SDS011;63609;49.992;14.512;2023-05-10T08:39:18;3.95;;;2.22;;
75038;SDS011;63609;49.992;14.512;2023-05-10T08:41:57;5.55;;;2.33;;
75038;SDS011;63609;49.992;14.512;2023-05-10T08:44:30;4.32;;;2.45;;
75038;SDS011;63609;49.992;14.512;2023-05-10T08:46:59;4.22;;;2.03;;
75038;SDS011;63609;49.992;14.512;2023-05-10T08:49:32;4.72;;;2.20;;
75038;SDS011;63609;49.992;14.512;2023-05-10T08:52:04;4.05;;;1.73;;
75038;SDS011;63609;49.992;14.512;2023-05-10T08:54:35;3.28;;;1.98;;
75038;SDS011;63609;49.992;14.512;2023-05-10T08:57:03;4.55;;;2.00;;
75038;SDS011;63609;49.992;14.512;2023-05-10T08:59:32;2.78;;;1.98;;
75038;SDS011;63609;49.992;14.512;2023-05-10T09:02:00;4.05;;;2.42;;
75038;SDS011;63609;49.992;14.512;2023-05-10T09:04:32;2.63;;;2.03;;
75038;SDS011;63609;49.992;14.512;2023-05-10T09:07:03;4.63;;;1.80;;
75038;SDS011;63609;49.992;14.512;2023-05-10T09:09:30;3.17;;;1.60;;
75038;SDS011;63609;49.992;14.512;2023-05-10T09:12:02;3.83;;;2.22;;
75038;SDS011;63609;49.992;14.512;2023-05-10T09:14:30;3.13;;;1.58;;
75038;SDS011;63609;49.992;14.512;2023-05-10T09:17:03;4.43;;;1.83;;
75038;SDS011;63609;49.992;14.512;2023-05-10T09:19:31;3.88;;;2.35;;
75038;SDS011;63609;49.992;14.512;2023-05-10T09:21:59;5.38;;;2.20;;
75038;SDS011;63609;49.992;14.512;2023-05-10T09:24:29;4.47;;;1.92;;
75038;SDS011;63609;49.992;14.512;2023-05-10T09:26:58;2.88;;;1.98;;
75038;SDS011;63609;49.992;14.512;2023-05-10T09:29:38;2.83;;;1.80;;
75038;SDS011;63609;49.992;14.512;2023-05-10T09:32:07;3.22;;;1.73;;
75038;SDS011;63609;49.992;14.512;2023-05-10T09:34:35;3.72;;;2.10;;
75038;SDS011;63609;49.992;14.512;2023-05-10T09:37:07;4.55;;;2.20;;
75038;SDS011;63609;49.992;14.512;2023-05-10T09:39:37;4.72;;;2.17;;
75038;SDS011;63609;49.992;14.512;2023-05-10T09:42:09;3.63;;;2.20;;
75038;SDS011;63609;49.992;14.512;2023-05-10T09:44:38;3.83;;;1.95;;
75038;SDS011;63609;49.992;14.512;2023-05-10T09:47:10;5.65;;;2.17;;
75038;SDS011;63609;49.992;14.512;2023-05-10T09:49:49;3.88;;;2.22;;
75038;SDS011;63609;49.992;14.512;2023-05-10T09:52:18;3.65;;;2.25;;
75038;SDS011;63609;49.992;14.512;2023-05-10T09:54:51;4.20;;;2.20;;
75038;SDS011;63609;49.992;14.512;2023-05-10T09:57:21;4.53;;;2.13;;
75038;SDS011;63609;49.992;14.512;2023-05-10T09:59:49;3.85;;;2.20;;
75038;SDS011;63609;49.992;14.512;2023-05-10T10:02:18;3.15;;;2.00;;
75038;SDS011;63609;49.992;14.512;2023-05-10T10:04:52;3.20;;;2.22;;
75038;SDS011;63609;49.992;14.512;2023-05-10T10:07:24;5.13;;;2.40;;
75038;SDS011;63609;49.992;14.512;2023-05-10T10:09:54;3.95;;;2.10;;
75038;SDS011;63609;49.992;14.512;2023-05-10T10:12:23;5.25;;;2.17;;
75038;SDS011;63609;49.992;14.512;2023-05-10T10:14:55;4.38;;;2.08;;
75038;SDS011;63609;49.992;14.512;2023-05-10T10:17:24;4.05;;;2.00;;
75038;SDS011;63609;49.992;14.512;2023-05-10T10:19:56;3.28;;;1.95;;
75038;SDS011;63609;49.992;14.512;2023-05-10T10:22:26;4.05;;;2.13;;
75038;SDS011;63609;49.992;14.512;2023-05-10T10:24:55;3.85;;;1.95;;
75038;SDS011;63609;49.992;14.512;2023-05-10T10:27:26;2.47;;;1.67;;
75038;SDS011;63609;49.992;14.512;2023-05-10T10:30:45;2.78;;;1.60;;
75038;SDS011;63609;49.992;14.512;2023-05-10T10:36:50;5.55;;;2.53;;
75038;SDS011;63609;49.992;14.512;2023-05-10T10:39:26;2.92;;;2.00;;
75038;SDS011;63609;49.992;14.512;2023-05-10T10:41:54;3.65;;;2.13;;
75038;SDS011;63609;49.992;14.512;2023-05-10T10:54:49;3.45;;;1.98;;
75038;SDS011;63609;49.992;14.512;2023-05-10T10:57:18;3.38;;;2.25;;
75038;SDS011;63609;49.992;14.512;2023-05-10T10:59:48;3.72;;;1.92;;
75038;SDS011;63609;49.992;14.512;2023-05-10T11:02:50;5.22;;;2.20;;
75038;SDS011;63609;49.992;14.512;2023-05-10T11:10:39;3.38;;;2.05;;
75038;SDS011;63609;49.992;14.512;2023-05-10T11:13:08;4.05;;;2.10;;
75038;SDS011;63609;49.992;14.512;2023-05-10T11:15:40;3.53;;;1.88;;
75038;SDS011;63609;49.992;14.512;2023-05-10T11:18:23;2.58;;;1.83;;
75038;SDS011;63609;49.992;14.512;2023-05-10T11:20:51;3.30;;;1.80;;
75038;SDS011;63609;49.992;14.512;2023-05-10T11:23:23;3.65;;;2.13;;
75038;SDS011;63609;49.992;14.512;2023-05-10T11:26:02;3.95;;;2.15;;
75038;SDS011;63609;49.992;14.512;2023-05-10T11:28:30;3.58;;;2.13;;
75038;SDS011;63609;49.992;14.512;2023-05-10T11:30:57;5.75;;;2.20;;
75038;SDS011;63609;49.992;14.512;2023-05-10T11:33:24;4.53;;;2.30;;
75038;SDS011;63609;49.992;14.512;2023-05-10T11:35:52;3.33;;;2.25;;
75038;SDS011;63609;49.992;14.512;2023-05-10T11:38:21;4.93;;;2.13;;
75038;SDS011;63609;49.992;14.512;2023-05-10T11:40:50;6.72;;;2.40;;
75038;SDS011;63609;49.992;14.512;2023-05-10T11:43:23;4.68;;;2.08;;
75038;SDS011;63609;49.992;14.512;2023-05-10T11:45:54;4.07;;;1.80;;
75038;SDS011;63609;49.992;14.512;2023-05-10T11:48:21;4.40;;;2.53;;
75038;SDS011;63609;49.992;14.512;2023-05-10T11:50:50;3.72;;;2.00;;
75038;SDS011;63609;49.992;14.512;2023-05-10T11:53:17;4.75;;;1.90;;
75038;SDS011;63609;49.992;14.512;2023-05-10T11:55:48;3.92;;;2.38;;
75038;SDS011;63609;49.992;14.512;2023-05-10T11:58:15;5.05;;;2.47;;
75038;SDS011;63609;49.992;14.512;2023-05-10T12:00:45;5.50;;;2.42;;
75038;SDS011;63609;49.992;14.512;2023-05-10T12:03:13;7.05;;;2.67;;
75038;SDS011;63609;49.992;14.512;2023-05-10T12:05:40;4.00;;;2.28;;
75038;SDS011;63609;49.992;14.512;2023-05-10T12:08:12;4.15;;;2.28;;
75038;SDS011;63609;49.992;14.512;2023-05-10T12:10:42;5.70;;;2.33;;
75038;SDS011;63609;49.992;14.512;2023-05-10T12:13:13;3.67;;;2.05;;
75038;SDS011;63609;49.992;14.512;2023-05-10T12:15:42;5.43;;;2.70;;
75038;SDS011;63609;49.992;14.512;2023-05-10T12:18:10;6.00;;;3.05;;
75038;SDS011;63609;49.992;14.512;2023-05-10T12:20:38;5.00;;;2.80;;
75038;SDS011;63609;49.992;14.512;2023-05-10T12:23:08;4.45;;;2.70;;
75038;SDS011;63609;49.992;14.512;2023-05-10T12:25:37;3.42;;;2.17;;
75038;SDS011;63609;49.992;14.512;2023-05-10T12:28:05;6.25;;;2.60;;
75038;SDS011;63609;49.992;14.512;2023-05-10T12:30:34;6.57;;;2.72;;
75038;SDS011;63609;49.992;14.512;2023-05-10T12:33:06;4.40;;;3.03;;
75038;SDS011;63609;49.992;14.512;2023-05-10T12:38:26;5.30;;;2.55;;
75038;SDS011;63609;49.992;14.512;2023-05-10T12:40:57;4.90;;;2.63;;
75038;SDS011;63609;49.992;14.512;2023-05-10T12:43:31;4.65;;;2.78;;
75038;SDS011;63609;49.992;14.512;2023-05-10T12:46:09;4.13;;;2.58;;
75038;SDS011;63609;49.992;14.512;2023-05-10T12:48:38;4.97;;;2.70;;
75038;SDS011;63609;49.992;14.512;2023-05-10T12:51:06;12.57;;;4.38;;
75038;SDS011;63609;49.992;14.512;2023-05-10T12:53:40;4.15;;;1.88;;
75038;SDS011;63609;49.992;14.512;2023-05-10T12:56:11;4.57;;;2.85;;
75038;SDS011;63609;49.992;14.512;2023-05-10T12:58:38;12.27;;;4.10;;
75038;SDS011;63609;49.992;14.512;2023-05-10T13:01:05;4.95;;;2.88;;
75038;SDS011;63609;49.992;14.512;2023-05-10T13:03:32;4.38;;;2.58;;
75038;SDS011;63609;49.992;14.512;2023-05-10T13:05:59;4.93;;;3.03;;
75038;SDS011;63609;49.992;14.512;2023-05-10T13:08:30;4.22;;;2.50;;
75038;SDS011;63609;49.992;14.512;2023-05-10T13:11:00;4.90;;;2.47;;
75038;SDS011;63609;49.992;14.512;2023-05-10T13:13:28;3.67;;;2.60;;
75038;SDS011;63609;49.992;14.512;2023-05-10T13:15:55;4.53;;;2.40;;
75038;SDS011;63609;49.992;14.512;2023-05-10T13:18:26;6.40;;;3.08;;
75038;SDS011;63609;49.992;14.512;2023-05-10T13:20:54;5.68;;;2.67;;
75038;SDS011;63609;49.992;14.512;2023-05-10T13:23:23;8.05;;;3.25;;
75038;SDS011;63609;49.992;14.512;2023-05-10T13:25:50;3.53;;;2.30;;
75038;SDS011;63609;49.992;14.512;2023-05-10T13:28:17;4.97;;;3.00;;
75038;SDS011;63609;49.992;14.512;2023-05-10T13:30:44;4.22;;;2.78;;
75038;SDS011;63609;49.992;14.512;2023-05-10T13:33:11;4.30;;;2.70;;
75038;SDS011;63609;49.992;14.512;2023-05-10T13:35:39;5.85;;;2.85;;
75038;SDS011;63609;49.992;14.512;2023-05-10T13:38:06;5.13;;;2.88;;
75038;SDS011;63609;49.992;14.512;2023-05-10T13:40:34;4.38;;;2.42;;
75038;SDS011;63609;49.992;14.512;2023-05-10T13:43:02;3.88;;;2.53;;
75038;SDS011;63609;49.992;14.512;2023-05-10T13:45:32;5.50;;;2.85;;
75038;SDS011;63609;49.992;14.512;2023-05-10T13:47:59;5.22;;;2.90;;
75038;SDS011;63609;49.992;14.512;2023-05-10T13:50:26;4.07;;;2.47;;
75038;SDS011;63609;49.992;14.512;2023-05-10T13:52:53;4.28;;;2.33;;
75038;SDS011;63609;49.992;14.512;2023-05-10T13:55:21;4.25;;;2.88;;
75038;SDS011;63609;49.992;14.512;2023-05-10T13:57:48;4.88;;;2.70;;
75038;SDS011;63609;49.992;14.512;2023-05-10T14:00:18;6.22;;;2.67;;
75038;SDS011;63609;49.992;14.512;2023-05-10T14:02:45;3.80;;;2.50;;
75038;SDS011;63609;49.992;14.512;2023-05-10T14:05:12;4.25;;;2.55;;
75038;SDS011;63609;49.992;14.512;2023-05-10T14:07:39;5.18;;;2.45;;
75038;SDS011;63609;49.992;14.512;2023-05-10T14:10:07;3.60;;;2.33;;
75038;SDS011;63609;49.992;14.512;2023-05-10T14:12:34;5.13;;;2.88;;
75038;SDS011;63609;49.992;14.512;2023-05-10T14:15:01;5.05;;;2.78;;
75038;SDS011;63609;49.992;14.512;2023-05-10T14:17:29;3.70;;;2.15;;
75038;SDS011;63609;49.992;14.512;2023-05-10T14:19:56;3.83;;;2.38;;
75038;SDS011;63609;49.992;14.512;2023-05-10T14:22:23;3.90;;;2.22;;
75038;SDS011;63609;49.992;14.512;2023-05-10T14:24:50;8.60;;;3.70;;
75038;SDS011;63609;49.992;14.512;2023-05-10T14:27:17;5.07;;;2.30;;
75038;SDS011;63609;49.992;14.512;2023-05-10T14:29:44;3.30;;;2.03;;
75038;SDS011;63609;49.992;14.512;2023-05-10T14:32:12;3.70;;;2.38;;
75038;SDS011;63609;49.992;14.512;2023-05-10T14:34:39;3.42;;;2.00;;
75038;SDS011;63609;49.992;14.512;2023-05-10T14:37:06;6.30;;;2.30;;
75038;SDS011;63609;49.992;14.512;2023-05-10T14:39:33;4.55;;;2.40;;
75038;SDS011;63609;49.992;14.512;2023-05-10T14:42:00;4.57;;;2.75;;
75038;SDS011;63609;49.992;14.512;2023-05-10T14:44:29;3.58;;;2.15;;
75038;SDS011;63609;49.992;14.512;2023-05-10T14:46:59;4.40;;;2.80;;
75038;SDS011;63609;49.992;14.512;2023-05-10T14:49:27;4.18;;;2.58;;
75038;SDS011;63609;49.992;14.512;2023-05-10T14:51:57;5.03;;;2.60;;
75038;SDS011;63609;49.992;14.512;2023-05-10T14:54:25;4.78;;;2.28;;
75038;SDS011;63609;49.992;14.512;2023-05-10T14:56:55;4.93;;;2.45;;
75038;SDS011;63609;49.992;14.512;2023-05-10T14:59:23;3.03;;;2.10;;
75038;SDS011;63609;49.992;14.512;2023-05-10T15:01:50;4.43;;;2.47;;
75038;SDS011;63609;49.992;14.512;2023-05-10T15:04:18;3.35;;;2.03;;
75038;SDS011;63609;49.992;14.512;2023-05-10T15:06:45;3.33;;;2.08;;
75038;SDS011;63609;49.992;14.512;2023-05-10T15:09:12;3.05;;;2.00;;
75038;SDS011;63609;49.992;14.512;2023-05-10T15:11:39;4.30;;;1.98;;
75038;SDS011;63609;49.992;14.512;2023-05-10T15:14:06;4.25;;;2.33;;
75038;SDS011;63609;49.992;14.512;2023-05-10T15:16:33;2.60;;;1.70;;
75038;SDS011;63609;49.992;14.512;2023-05-10T15:19:04;5.18;;;1.98;;
75038;SDS011;63609;49.992;14.512;2023-05-10T15:21:31;4.97;;;1.83;;
75038;SDS011;63609;49.992;14.512;2023-05-10T15:24:04;6.05;;;2.30;;
75038;SDS011;63609;49.992;14.512;2023-05-10T15:26:32;3.90;;;2.10;;
75038;SDS011;63609;49.992;14.512;2023-05-10T15:29:00;4.25;;;1.88;;
75038;SDS011;63609;49.992;14.512;2023-05-10T15:31:27;4.90;;;2.10;;
75038;SDS011;63609;49.992;14.512;2023-05-10T15:33:58;5.18;;;2.30;;
75038;SDS011;63609;49.992;14.512;2023-05-10T15:36:28;4.28;;;2.20;;
75038;SDS011;63609;49.992;14.512;2023-05-10T15:38:55;2.95;;;2.00;;
75038;SDS011;63609;49.992;14.512;2023-05-10T15:41:22;3.38;;;1.77;;